Rechercher aéroport 
image banner adimage banner ad
image banner ad

SBCX - Hugo Cantergiani Regional Airport

Situé à Caxias Do Sul, Brazil

ICAO - SBCX, IATA - CXJ

Données fournies par Airmate  

Information générale

Coordonnées: S29°11'44" W51°11'23"
Élévation : 2473 feet MSL.
Variation magnétique : -17° East
Voir autres Aéroports à Rio Grande do Sul

Données opérationnelles

Accessible au public
Heure actuelle UTC:
Heure actuelle locale:
Météo
METAR: SBCX 281300Z 30012KT 9999 SCT015 19/12 Q1009
Voir NOTAMs / SUP AIP / TFR affectant cet aéroport [VIEW]
Fréquences de communication: [VIEW]

Pistes:

Identifiant RWYQFULongueur (ft)Largeur (ft)SurfaceLDA (ft)
15547998ASP
33547998ASP

Coordonnées de l'aéroport

Adresse: Caxias Do Sul Brazil

Autres services d'aviation

Clubs d'aviation (sans but lucratif)

Aero Club Of Caxias Do Sul

Aero Club Of Caxias Do Sul

Vue satellite de SBCX